createdAt,value
2019-01-13T00:02:09.851Z,7.70
2019-01-13T00:04:36.178Z,7.60
2019-01-13T00:07:03.178Z,7.60
2019-01-13T00:09:32.262Z,7.60
2019-01-13T00:11:58.469Z,7.60
2019-01-13T00:14:24.694Z,7.60
2019-01-13T00:16:50.927Z,7.60
2019-01-13T00:19:17.230Z,7.70
2019-01-13T00:21:43.451Z,7.70
2019-01-13T00:24:09.898Z,7.70
2019-01-13T00:26:36.584Z,7.60
2019-01-13T00:29:03.285Z,7.60
2019-01-13T00:31:29.527Z,7.70
2019-01-13T00:33:55.758Z,7.60
2019-01-13T00:36:21.970Z,7.60
2019-01-13T00:38:48.233Z,7.60
2019-01-13T00:41:14.626Z,7.70
2019-01-13T00:43:40.839Z,7.60
2019-01-13T00:46:07.258Z,7.70
2019-01-13T00:48:33.470Z,7.60
2019-01-13T00:50:59.715Z,7.60
2019-01-13T00:53:26.033Z,7.60
2019-01-13T00:55:52.552Z,7.60
2019-01-13T00:58:18.767Z,7.60
2019-01-13T01:00:44.983Z,7.60
2019-01-13T01:03:11.418Z,7.60
2019-01-13T01:05:38.035Z,7.60
2019-01-13T01:08:04.766Z,7.60
2019-01-13T01:10:30.975Z,7.60
2019-01-13T01:12:57.195Z,7.60
2019-01-13T01:15:23.603Z,7.60
2019-01-13T01:17:49.824Z,7.60
2019-01-13T01:20:16.227Z,7.60
2019-01-13T01:22:43.983Z,7.60
2019-01-13T01:25:12.724Z,7.70
2019-01-13T01:27:39.146Z,7.70
2019-01-13T01:30:09.145Z,7.70
2019-01-13T01:32:35.359Z,7.60
2019-01-13T01:35:02.223Z,7.60
2019-01-13T01:37:34.370Z,7.60
2019-01-13T01:40:00.606Z,7.60
2019-01-13T01:42:26.902Z,7.60
2019-01-13T01:44:53.144Z,7.60
2019-01-13T01:47:19.342Z,7.60
2019-01-13T01:49:45.602Z,7.70
2019-01-13T01:52:11.810Z,7.70
2019-01-13T01:54:38.055Z,7.70
2019-01-13T01:57:04.358Z,7.70
2019-01-13T01:59:30.581Z,7.70
2019-01-13T02:02:05.015Z,7.70
2019-01-13T02:04:50.183Z,7.70
2019-01-13T02:07:16.399Z,7.70
2019-01-13T02:09:42.872Z,7.70
2019-01-13T02:12:09.070Z,7.70
2019-01-13T02:14:35.294Z,7.70
2019-01-13T02:17:01.514Z,7.70
2019-01-13T02:19:27.840Z,7.70
2019-01-13T02:21:54.043Z,7.70
2019-01-13T02:24:20.267Z,7.60
2019-01-13T02:26:46.470Z,7.60
2019-01-13T02:29:12.717Z,7.50
2019-01-13T02:31:38.914Z,7.50
2019-01-13T02:34:05.114Z,7.50
2019-01-13T02:36:31.464Z,7.50
2019-01-13T02:38:57.803Z,7.50
2019-01-13T02:41:24.457Z,7.50
2019-01-13T02:43:50.679Z,7.50
2019-01-13T02:46:16.992Z,7.50
2019-01-13T02:48:43.195Z,7.50
2019-01-13T02:51:09.406Z,7.50
2019-01-13T02:53:35.622Z,7.50
2019-01-13T02:56:01.847Z,7.50
2019-01-13T02:58:28.046Z,7.50
2019-01-13T03:00:57.184Z,7.40
2019-01-13T03:03:22.504Z,7.50
2019-01-13T03:05:48.812Z,7.40
2019-01-13T03:08:15.036Z,7.50
2019-01-13T03:10:41.351Z,7.50
2019-01-13T03:13:07.567Z,7.60
2019-01-13T03:15:33.882Z,7.60
2019-01-13T03:18:00.206Z,7.60
2019-01-13T03:20:26.523Z,7.70
2019-01-13T03:22:53.099Z,7.70
2019-01-13T03:25:20.506Z,7.70
2019-01-13T03:27:47.120Z,7.70
2019-01-13T03:30:21.419Z,7.70
2019-01-13T03:32:47.828Z,7.70
2019-01-13T03:35:14.556Z,7.70
2019-01-13T03:37:40.969Z,7.70
2019-01-13T03:40:18.575Z,7.70
2019-01-13T03:42:45.583Z,7.70
2019-01-13T03:45:12.202Z,7.70
2019-01-13T03:47:38.407Z,7.70
2019-01-13T03:50:08.453Z,7.60
2019-01-13T03:52:34.751Z,7.60
2019-01-13T03:55:01.117Z,7.70
2019-01-13T03:57:27.487Z,7.80
2019-01-13T03:59:53.694Z,7.80
2019-01-13T04:02:19.927Z,7.80
2019-01-13T04:04:46.161Z,7.80
2019-01-13T04:07:12.404Z,7.80
2019-01-13T04:09:38.656Z,7.80
2019-01-13T04:12:04.905Z,7.80
2019-01-13T04:14:31.115Z,7.80
2019-01-13T04:16:57.759Z,7.80
2019-01-13T04:19:23.970Z,7.80
2019-01-13T04:21:50.210Z,7.80
2019-01-13T04:24:16.541Z,7.80
2019-01-13T04:26:42.764Z,7.80
2019-01-13T04:29:08.999Z,7.80
2019-01-13T04:31:35.269Z,7.90
2019-01-13T04:34:01.478Z,7.90
2019-01-13T04:36:27.695Z,7.90
2019-01-13T04:38:53.922Z,7.80
2019-01-13T04:41:20.147Z,7.90
2019-01-13T04:43:46.409Z,7.90
2019-01-13T04:46:12.616Z,7.80
2019-01-13T04:48:38.835Z,7.80
2019-01-13T04:51:05.039Z,7.80
2019-01-13T04:53:31.287Z,7.80
2019-01-13T04:55:57.487Z,7.90
2019-01-13T04:58:23.690Z,7.90
2019-01-13T05:00:49.905Z,7.90
2019-01-13T05:03:16.107Z,7.90
2019-01-13T05:05:42.326Z,7.90
2019-01-13T05:08:08.569Z,7.90
2019-01-13T05:10:34.795Z,7.90
2019-01-13T05:13:01.275Z,7.90
2019-01-13T05:15:36.146Z,7.80
2019-01-13T05:18:02.451Z,7.90
2019-01-13T05:20:29.031Z,7.90
2019-01-13T05:22:56.702Z,7.90
2019-01-13T05:25:23.154Z,7.90
2019-01-13T05:27:49.363Z,7.90
2019-01-13T05:30:20.015Z,7.90
2019-01-13T05:32:46.618Z,7.80
2019-01-13T05:35:13.042Z,7.90
2019-01-13T05:37:39.238Z,7.90
2019-01-13T05:40:09.270Z,7.80
2019-01-13T05:42:35.466Z,7.80
2019-01-13T05:45:01.872Z,7.90
2019-01-13T05:47:28.090Z,7.90
2019-01-13T05:49:54.285Z,7.90
2019-01-13T05:52:20.511Z,7.90
2019-01-13T05:54:47.089Z,8.00
2019-01-13T05:57:13.467Z,8.00
2019-01-13T05:59:39.670Z,8.00
2019-01-13T06:02:05.871Z,8.10
2019-01-13T06:04:32.094Z,8.10
2019-01-13T06:06:58.623Z,8.10
2019-01-13T06:09:24.829Z,8.10
2019-01-13T06:11:51.143Z,8.10
2019-01-13T06:14:17.357Z,8.10
2019-01-13T06:16:43.583Z,8.00
2019-01-13T06:19:09.806Z,8.10
2019-01-13T06:21:36.119Z,8.10
2019-01-13T06:24:02.334Z,8.10
2019-01-13T06:26:28.562Z,8.10
2019-01-13T06:28:54.778Z,8.10
2019-01-13T06:31:20.982Z,8.10
2019-01-13T06:33:47.202Z,8.10
2019-01-13T06:36:13.406Z,8.10
2019-01-13T06:38:39.626Z,8.20
2019-01-13T06:41:05.931Z,8.20
2019-01-13T06:43:32.350Z,8.20
2019-01-13T06:45:58.570Z,8.20
2019-01-13T06:48:24.786Z,8.20
2019-01-13T06:50:50.991Z,8.20
2019-01-13T06:53:17.248Z,8.30
2019-01-13T06:55:43.441Z,8.20
2019-01-13T06:58:10.018Z,8.30
2019-01-13T07:00:36.332Z,8.30
2019-01-13T07:03:02.954Z,8.30
2019-01-13T07:05:29.158Z,8.40
2019-01-13T07:07:55.566Z,8.40
2019-01-13T07:10:21.944Z,8.30
2019-01-13T07:12:48.753Z,8.40
2019-01-13T07:15:16.892Z,8.40
2019-01-13T07:17:43.304Z,8.40
2019-01-13T07:20:12.235Z,8.40
2019-01-13T07:22:38.439Z,8.40
2019-01-13T07:25:05.698Z,8.40
2019-01-13T07:27:31.912Z,8.40
2019-01-13T07:29:58.140Z,8.40
2019-01-13T07:32:24.338Z,8.40
2019-01-13T07:34:50.561Z,8.40
2019-01-13T07:37:16.787Z,8.50
2019-01-13T07:39:42.986Z,8.50
2019-01-13T07:42:09.206Z,8.50
2019-01-13T07:44:35.434Z,8.50
2019-01-13T07:47:01.668Z,8.50
2019-01-13T07:49:27.920Z,8.60
2019-01-13T07:51:54.138Z,8.60
2019-01-13T07:54:20.373Z,8.60
2019-01-13T07:56:46.598Z,8.60
2019-01-13T07:59:12.942Z,8.60
2019-01-13T08:01:39.246Z,8.60
2019-01-13T08:04:05.448Z,8.70
2019-01-13T08:06:31.678Z,8.60
2019-01-13T08:08:57.900Z,8.60
2019-01-13T08:11:24.123Z,8.60
2019-01-13T08:13:50.571Z,8.60
2019-01-13T08:16:16.790Z,8.60
2019-01-13T08:18:42.999Z,8.60
2019-01-13T08:21:09.198Z,8.60
2019-01-13T08:23:35.482Z,8.70
2019-01-13T08:26:01.792Z,8.60
2019-01-13T08:28:28.006Z,8.70
2019-01-13T08:30:54.205Z,8.70
2019-01-13T08:33:20.434Z,8.70
2019-01-13T08:35:46.967Z,8.70
2019-01-13T08:38:13.186Z,8.70
2019-01-13T08:40:39.381Z,8.80
2019-01-13T08:43:05.590Z,8.80
2019-01-13T08:45:31.842Z,8.80
2019-01-13T08:47:58.042Z,8.80
2019-01-13T08:50:24.581Z,8.80
2019-01-13T08:52:51.382Z,8.70
2019-01-13T08:55:18.166Z,8.70
2019-01-13T08:57:44.881Z,8.70
2019-01-13T09:00:19.990Z,8.70
2019-01-13T09:02:46.320Z,8.80
2019-01-13T09:05:12.634Z,8.80
2019-01-13T09:07:38.860Z,8.80
2019-01-13T09:10:08.878Z,8.80
2019-01-13T09:12:35.105Z,8.80
2019-01-13T09:15:01.507Z,8.80
2019-01-13T09:17:27.722Z,8.80
2019-01-13T09:19:53.930Z,8.80
2019-01-13T09:22:20.158Z,8.80
2019-01-13T09:24:46.362Z,8.80
2019-01-13T09:27:12.590Z,8.80
2019-01-13T09:29:42.543Z,8.90
2019-01-13T09:32:07.098Z,8.90
2019-01-13T09:34:33.470Z,8.80
2019-01-13T09:37:00.014Z,8.80
2019-01-13T09:39:26.371Z,8.80
2019-01-13T09:41:52.586Z,8.80
2019-01-13T09:44:18.895Z,8.80
2019-01-13T09:46:45.355Z,8.80
2019-01-13T09:49:11.883Z,8.80
2019-01-13T09:51:38.154Z,8.80
2019-01-13T09:54:04.425Z,8.80
2019-01-13T09:56:30.651Z,8.80
2019-01-13T09:58:56.854Z,8.80
2019-01-13T10:01:23.176Z,8.80
2019-01-13T10:03:49.387Z,8.80
2019-01-13T10:06:17.046Z,8.80
2019-01-13T10:08:43.522Z,8.80
2019-01-13T10:11:09.902Z,8.80
2019-01-13T10:13:36.109Z,8.90
2019-01-13T10:16:02.889Z,8.80
2019-01-13T10:18:29.210Z,8.80
2019-01-13T10:20:56.187Z,8.80
2019-01-13T10:23:22.542Z,8.80
2019-01-13T10:25:48.738Z,8.80
2019-01-13T10:28:15.035Z,8.80
2019-01-13T10:30:41.258Z,8.80
2019-01-13T10:33:07.454Z,8.80
2019-01-13T10:35:33.773Z,8.80
2019-01-13T10:37:59.977Z,8.80
2019-01-13T10:40:27.303Z,8.80
2019-01-13T10:42:54.307Z,8.80
2019-01-13T10:45:20.762Z,8.90
2019-01-13T10:47:47.062Z,8.90
2019-01-13T10:50:19.582Z,8.90
2019-01-13T10:52:45.999Z,8.90
2019-01-13T10:55:13.510Z,9.00
2019-01-13T10:57:39.719Z,8.90
2019-01-13T11:00:10.054Z,8.90
2019-01-13T11:02:36.366Z,8.90
2019-01-13T11:05:04.462Z,8.90
2019-01-13T11:07:30.694Z,8.90
2019-01-13T11:09:57.362Z,8.90
2019-01-13T11:12:43.556Z,8.90
2019-01-13T11:15:12.683Z,8.90
2019-01-13T11:17:38.899Z,8.90
2019-01-13T11:20:11.578Z,8.90
2019-01-13T11:22:37.835Z,8.90
2019-01-13T11:25:05.146Z,9.00
2019-01-13T11:27:31.510Z,8.90
2019-01-13T11:29:57.717Z,9.00
2019-01-13T11:32:24.000Z,9.00
2019-01-13T11:34:50.458Z,9.00
2019-01-13T11:37:16.838Z,9.10
2019-01-13T11:39:43.192Z,9.10
2019-01-13T11:42:09.405Z,9.10
2019-01-13T11:44:35.646Z,9.10
2019-01-13T11:47:01.912Z,9.00
2019-01-13T11:49:28.125Z,9.00
2019-01-13T11:51:54.334Z,9.00
2019-01-13T11:54:20.558Z,8.90
2019-01-13T11:56:46.791Z,8.90
2019-01-13T11:59:13.071Z,8.90
2019-01-13T12:01:39.275Z,8.90
2019-01-13T12:04:23.843Z,9.00
2019-01-13T12:06:50.134Z,9.00
2019-01-13T12:09:16.337Z,9.00
2019-01-13T12:11:42.693Z,9.00
2019-01-13T12:14:09.011Z,8.90
2019-01-13T12:16:37.896Z,8.90
2019-01-13T12:19:04.318Z,8.90
2019-01-13T12:21:30.529Z,9.00
2019-01-13T12:23:56.738Z,8.90
2019-01-13T12:26:23.146Z,9.00
2019-01-13T12:28:49.371Z,9.00
2019-01-13T12:31:15.792Z,9.00
2019-01-13T12:33:42.098Z,9.10
2019-01-13T12:36:08.407Z,9.00
2019-01-13T12:38:34.633Z,9.00
2019-01-13T12:41:00.839Z,9.10
2019-01-13T12:43:27.067Z,9.10
2019-01-13T12:45:53.422Z,9.10
2019-01-13T12:48:19.753Z,9.10
2019-01-13T19:00:38.516Z,8.70
2019-01-13T19:10:34.257Z,8.80
2019-01-13T19:13:10.554Z,8.80
2019-01-13T19:15:36.779Z,8.70
2019-01-13T19:18:02.980Z,8.80
2019-01-13T19:20:30.193Z,8.70
2019-01-13T19:22:56.405Z,8.80
2019-01-13T19:25:24.726Z,8.80
2019-01-13T19:27:50.936Z,8.80
2019-01-13T19:30:17.364Z,8.80
2019-01-13T19:32:43.707Z,8.90
2019-01-13T19:35:12.815Z,9.00
2019-01-13T19:37:41.213Z,9.00
2019-01-13T19:42:35.940Z,8.90
2019-01-13T19:49:57.239Z,8.80
2019-01-13T19:54:50.014Z,8.70
2019-01-13T19:57:16.258Z,8.70
2019-01-13T19:59:42.457Z,8.70
2019-01-13T20:02:08.664Z,8.70
2019-01-13T20:04:35.086Z,8.80
2019-01-13T20:07:01.671Z,8.80
2019-01-13T20:09:28.059Z,8.80
2019-01-13T20:11:54.358Z,8.70
2019-01-13T20:14:20.586Z,8.60
2019-01-13T20:16:46.787Z,8.50
2019-01-13T20:19:13.011Z,8.40
2019-01-13T20:21:39.270Z,8.30
2019-01-13T20:24:05.482Z,8.20
2019-01-13T20:26:31.899Z,8.10
2019-01-13T20:28:58.123Z,8.00
2019-01-13T20:31:24.320Z,7.80
2019-01-13T20:33:50.763Z,7.80
2019-01-13T20:36:17.005Z,7.80
2019-01-13T20:38:43.213Z,7.90
2019-01-13T20:41:09.438Z,7.90
2019-01-13T20:43:35.652Z,7.80
2019-01-13T20:46:02.075Z,7.80
2019-01-13T20:48:28.278Z,7.70
2019-01-13T20:50:54.494Z,7.70
2019-01-13T20:53:21.014Z,7.70
2019-01-13T20:55:47.412Z,7.70
2019-01-13T20:58:13.680Z,7.70
2019-01-13T21:00:39.878Z,7.70
2019-01-13T21:03:06.095Z,7.70
2019-01-13T21:05:32.293Z,7.70
2019-01-13T21:07:58.522Z,7.60
2019-01-13T21:10:24.831Z,7.60
2019-01-13T21:12:51.146Z,7.60
2019-01-13T21:15:27.202Z,7.50
2019-01-13T21:17:57.407Z,7.50
2019-01-13T21:20:21.917Z,7.40
2019-01-13T21:22:48.756Z,7.40
2019-01-13T21:25:16.064Z,7.40
2019-01-13T21:27:42.694Z,7.40
2019-01-13T21:30:18.728Z,7.40
2019-01-13T21:32:44.938Z,7.50
2019-01-13T21:35:11.577Z,7.60
2019-01-13T21:37:37.805Z,7.60
2019-01-13T21:40:07.610Z,7.70
2019-01-13T21:42:33.829Z,7.70
2019-01-13T21:45:00.085Z,7.70
2019-01-13T21:47:26.461Z,7.70
2019-01-13T21:49:53.048Z,7.70
2019-01-13T21:52:19.243Z,7.70
2019-01-13T21:54:45.467Z,7.70
2019-01-13T21:57:11.670Z,7.70
2019-01-13T21:59:37.926Z,7.80
2019-01-13T22:02:04.225Z,7.80
2019-01-13T22:04:31.233Z,7.70
2019-01-13T22:06:57.635Z,7.70
2019-01-13T22:09:23.862Z,7.60
2019-01-13T22:11:50.058Z,7.60
2019-01-13T22:14:16.314Z,7.60
2019-01-13T22:16:42.619Z,7.50
2019-01-13T22:19:08.834Z,7.50
2019-01-13T22:21:35.039Z,7.50
2019-01-13T22:24:01.255Z,7.50
2019-01-13T22:26:27.460Z,7.50
2019-01-13T22:29:02.810Z,7.50
2019-01-13T22:31:29.003Z,7.40
2019-01-13T22:33:55.215Z,7.40
2019-01-13T22:36:21.574Z,7.40
2019-01-13T22:38:47.863Z,7.50
2019-01-13T22:41:14.290Z,7.50
2019-01-13T22:43:40.515Z,7.40
2019-01-13T22:46:06.735Z,7.30
2019-01-13T22:48:32.929Z,7.20
2019-01-13T22:50:59.147Z,7.20
2019-01-13T22:53:25.353Z,7.20
2019-01-13T22:55:51.571Z,7.20
2019-01-13T22:58:17.818Z,7.20
2019-01-13T23:00:58.727Z,7.20
2019-01-13T23:03:24.947Z,7.20
2019-01-13T23:05:57.298Z,7.20
2019-01-13T23:08:23.507Z,7.30
2019-01-13T23:10:49.730Z,7.20
2019-01-13T23:13:15.940Z,7.30
2019-01-13T23:15:42.318Z,7.40
2019-01-13T23:18:08.634Z,7.40
2019-01-13T23:20:35.124Z,7.40
2019-01-13T23:23:01.337Z,7.40
2019-01-13T23:25:27.542Z,7.30
2019-01-13T23:27:53.770Z,7.40
2019-01-13T23:30:19.971Z,7.30
2019-01-13T23:32:46.303Z,7.30
2019-01-13T23:35:12.617Z,7.40
2019-01-13T23:37:38.863Z,7.30
2019-01-13T23:40:06.037Z,7.30
2019-01-13T23:42:32.365Z,7.40
2019-01-13T23:44:58.654Z,7.30
2019-01-13T23:47:24.874Z,7.30
2019-01-13T23:49:51.382Z,7.30
2019-01-13T23:52:17.614Z,7.40
2019-01-13T23:54:43.825Z,7.40
2019-01-13T23:57:10.066Z,7.40
2019-01-13T23:59:36.295Z,7.40
